Weather at Mount Forest Roths' Field

Public forecast

Using degrees Celsius for public forecast. Weather courtesy of forecast.io.

Closest aviation weather report (METAR) to Mount Forest Roths' Field

Closest report is Wiarton Airport, 31.2 nm (57.7 km) N. Retrieved 2020/09/24 19:11 UTC (18 minutes ago):

CYVV 241911Z 04006KT 15SM FEW012 FEW030 OVC100 16/15 A2993 RMK SF1SC1AC7 SF TR SLP138 DENSITY ALT 1100FT

Closest aviation forecast (TAF) to Mount Forest Roths' Field

Closest forecast is Wiarton Airport, 31.2 nm (57.7 km) N. Retrieved 2020/09/24 20:00 UTC (0 seconds ago):

TAF CYVV 241939Z 2420/2423 06005KT P6SM SCT030 BKN100 TEMPO 2420/2423 P6SM -SHRA BKN030 OVC100 PROB30 2420/2423 VRB15G25KT 2SM TSRA BR BKN020 OVC040CB RMK NXT FCST WILL BE ISSUED AT 251045Z